createdAt,value
2018-05-18T00:00:55.393Z,5.30
2018-05-18T00:03:22.918Z,5.80
2018-05-18T00:05:50.426Z,5.50
2018-05-18T00:08:18.693Z,5.57
2018-05-18T00:10:46.216Z,5.50
2018-05-18T00:13:13.715Z,5.70
2018-05-18T00:15:42.058Z,5.40
2018-05-18T00:18:09.595Z,5.90
2018-05-18T00:20:37.113Z,5.20
2018-05-18T00:23:04.615Z,5.00
2018-05-18T00:25:32.155Z,5.07
2018-05-18T00:28:00.420Z,4.83
2018-05-18T00:30:27.922Z,5.13
2018-05-18T00:32:55.469Z,5.20
2018-05-18T00:35:24.211Z,5.30
2018-05-18T00:37:51.710Z,5.53
2018-05-18T00:40:19.284Z,5.07
2018-05-18T00:42:46.802Z,5.63
2018-05-18T00:45:14.315Z,5.73
2018-05-18T00:47:41.850Z,5.00
2018-05-18T00:50:09.354Z,5.17
2018-05-18T00:52:36.861Z,5.33
2018-05-18T00:55:16.094Z,5.50
2018-05-18T00:57:44.368Z,3.67
2018-05-18T01:00:11.874Z,4.93
2018-05-18T01:02:39.393Z,5.20
2018-05-18T01:05:07.674Z,4.97
2018-05-18T01:07:35.192Z,4.87
2018-05-18T01:10:02.732Z,5.40
2018-05-18T01:12:30.262Z,5.10
2018-05-18T01:14:57.784Z,4.67
2018-05-18T01:17:25.350Z,4.97
2018-05-18T01:19:52.866Z,4.37
2018-05-18T01:22:20.366Z,5.23
2018-05-18T01:24:47.890Z,4.90
2018-05-18T01:27:15.402Z,5.23
2018-05-18T01:29:42.931Z,5.67
2018-05-18T01:32:10.465Z,5.67
2018-05-18T01:34:37.961Z,5.20
2018-05-18T01:37:05.521Z,4.93
2018-05-18T01:39:33.050Z,5.23
2018-05-18T01:42:00.563Z,5.03
2018-05-18T01:44:28.066Z,4.77
2018-05-18T01:46:55.615Z,5.40
2018-05-18T01:49:23.137Z,4.93
2018-05-18T01:51:50.663Z,5.33
2018-05-18T01:54:18.220Z,5.33
2018-05-18T01:56:45.748Z,5.50
2018-05-18T01:59:13.267Z,4.70
2018-05-18T02:01:41.492Z,5.23
2018-05-18T02:04:09.015Z,5.23
2018-05-18T02:06:36.579Z,5.50
2018-05-18T02:09:06.906Z,4.93
2018-05-18T02:11:35.218Z,5.03
2018-05-18T02:14:02.717Z,5.30
2018-05-18T02:16:30.258Z,5.40
2018-05-18T02:18:57.790Z,5.33
2018-05-18T02:21:25.314Z,5.23
2018-05-18T02:23:52.823Z,5.30
2018-05-18T02:26:20.342Z,5.30
2018-05-18T02:28:47.872Z,5.00
2018-05-18T02:31:15.384Z,5.20
2018-05-18T02:33:42.967Z,5.00
2018-05-18T02:36:10.483Z,5.67
2018-05-18T02:38:37.993Z,4.87
2018-05-18T02:41:05.505Z,5.07
2018-05-18T02:43:33.000Z,5.37
2018-05-18T02:46:00.540Z,4.90
2018-05-18T02:48:28.054Z,5.00
2018-05-18T02:50:55.566Z,5.40
2018-05-18T02:53:23.086Z,5.37
2018-05-18T02:55:50.590Z,5.17
2018-05-18T02:58:18.123Z,5.67
2018-05-18T03:00:45.645Z,5.10
2018-05-18T03:03:13.141Z,5.53
2018-05-18T03:05:41.441Z,5.33
2018-05-18T03:08:10.318Z,5.17
2018-05-18T03:10:38.593Z,5.37
2018-05-18T03:13:06.912Z,5.73
2018-05-18T03:15:34.438Z,5.37
2018-05-18T03:18:02.720Z,6.70
2018-05-18T03:20:30.260Z,5.47
2018-05-18T03:22:57.767Z,5.37
2018-05-18T03:25:26.043Z,4.63
2018-05-18T03:27:53.591Z,5.83
2018-05-18T03:30:21.118Z,5.40
2018-05-18T03:32:48.725Z,4.67
2018-05-18T03:35:16.243Z,5.00
2018-05-18T03:37:43.738Z,4.97
2018-05-18T03:40:11.265Z,5.07
2018-05-18T03:42:38.779Z,5.37
2018-05-18T03:45:06.290Z,5.77
2018-05-18T03:47:33.818Z,5.77
2018-05-18T03:50:01.346Z,5.67
2018-05-18T03:52:28.858Z,4.77
2018-05-18T03:54:56.382Z,4.93
2018-05-18T03:57:23.890Z,5.53
2018-05-18T03:59:52.185Z,5.67
2018-05-18T04:02:31.507Z,5.67
2018-05-18T04:05:11.530Z,5.13
2018-05-18T04:07:50.852Z,5.10
2018-05-18T04:10:18.293Z,5.47
2018-05-18T04:12:45.795Z,5.80
2018-05-18T04:15:13.314Z,5.80
2018-05-18T04:17:40.833Z,5.80
2018-05-18T04:20:09.102Z,6.10
2018-05-18T04:22:36.650Z,6.00
2018-05-18T04:25:04.154Z,5.70
2018-05-18T04:27:31.678Z,6.33
2018-05-18T04:29:59.290Z,5.60
2018-05-18T04:32:26.842Z,6.23
2018-05-18T04:34:54.477Z,5.87
2018-05-18T04:37:21.986Z,5.60
2018-05-18T04:39:49.520Z,6.30
2018-05-18T04:42:17.028Z,4.77
2018-05-18T04:44:44.530Z,5.60
2018-05-18T04:47:12.842Z,5.70
2018-05-18T04:49:40.344Z,5.53
2018-05-18T04:52:08.473Z,6.07
2018-05-18T04:54:36.011Z,5.77
2018-05-18T04:57:04.900Z,5.87
2018-05-18T04:59:33.170Z,5.90
2018-05-18T05:02:01.490Z,6.13
2018-05-18T05:04:29.010Z,5.97
2018-05-18T05:06:57.290Z,6.17
2018-05-18T05:09:24.817Z,5.80
2018-05-18T05:11:52.337Z,6.10
2018-05-18T05:14:20.615Z,6.00
2018-05-18T05:16:48.143Z,6.20
2018-05-18T05:19:15.717Z,6.30
2018-05-18T05:21:43.262Z,6.37
2018-05-18T05:24:10.787Z,6.17
2018-05-18T05:26:38.331Z,5.57
2018-05-18T05:29:05.840Z,5.50
2018-05-18T05:31:33.402Z,6.07
2018-05-18T05:34:00.946Z,5.47
2018-05-18T05:36:28.495Z,6.50
2018-05-18T05:38:56.990Z,5.87
2018-05-18T05:41:24.506Z,5.67
2018-05-18T05:43:52.025Z,5.63
2018-05-18T05:46:20.350Z,6.10
2018-05-18T05:48:47.939Z,5.90
2018-05-18T05:51:15.474Z,6.20
2018-05-18T05:53:43.102Z,6.20
2018-05-18T05:56:11.392Z,6.03
2018-05-18T05:58:39.138Z,6.07
2018-05-18T06:01:06.643Z,6.73
2018-05-18T06:03:34.137Z,6.00
2018-05-18T06:06:01.674Z,5.00
2018-05-18T06:08:29.638Z,5.50
2018-05-18T06:10:57.214Z,4.97
2018-05-18T06:13:24.832Z,5.43
2018-05-18T06:15:52.374Z,5.80
2018-05-18T06:18:20.715Z,6.00
2018-05-18T06:20:48.234Z,6.00
2018-05-18T06:23:15.755Z,5.80
2018-05-18T06:25:43.296Z,4.30
2018-05-18T06:28:10.805Z,3.87
2018-05-18T06:30:38.327Z,5.47
2018-05-18T06:33:05.831Z,5.17
2018-05-18T06:35:33.381Z,4.83
2018-05-18T06:38:00.898Z,4.90
2018-05-18T06:40:28.433Z,5.47
2018-05-18T06:42:55.993Z,4.70
2018-05-18T06:45:23.489Z,4.90
2018-05-18T06:47:51.000Z,4.97
2018-05-18T06:50:18.533Z,4.10
2018-05-18T06:52:46.041Z,5.00
2018-05-18T06:55:13.539Z,5.83
2018-05-18T06:57:41.347Z,5.37
2018-05-18T07:00:08.846Z,5.03
2018-05-18T07:02:36.346Z,4.83
2018-05-18T07:05:04.676Z,5.00
2018-05-18T07:07:32.929Z,4.00
2018-05-18T07:10:00.466Z,4.43
2018-05-18T07:12:28.770Z,3.93
2018-05-18T07:14:56.313Z,4.30
2018-05-18T07:17:23.850Z,4.37
2018-05-18T07:19:51.395Z,5.20
2018-05-18T07:22:18.934Z,4.53
2018-05-18T07:24:46.440Z,3.93
2018-05-18T07:27:14.009Z,4.43
2018-05-18T07:29:41.570Z,4.70
2018-05-18T07:32:09.095Z,4.90
2018-05-18T07:34:36.653Z,4.57
2018-05-18T07:37:04.193Z,4.63
2018-05-18T07:39:31.736Z,4.77
2018-05-18T07:41:59.254Z,4.73
2018-05-18T07:44:27.533Z,4.07
2018-05-18T07:46:55.061Z,4.40
2018-05-18T07:49:22.605Z,4.80
2018-05-18T07:51:50.122Z,4.97
2018-05-18T07:54:18.499Z,4.57
2018-05-18T07:56:46.013Z,3.43
2018-05-18T07:59:13.518Z,4.80
2018-05-18T08:01:41.026Z,5.70
2018-05-18T08:04:08.583Z,5.23
2018-05-18T08:06:36.089Z,4.20
2018-05-18T08:09:03.584Z,4.43
2018-05-18T08:11:31.158Z,4.47
2018-05-18T08:13:58.714Z,4.77
2018-05-18T08:16:27.014Z,4.30
2018-05-18T08:18:54.553Z,4.40
2018-05-18T08:21:22.090Z,5.10
2018-05-18T08:23:49.602Z,4.90
2018-05-18T08:26:17.182Z,4.53
2018-05-18T08:28:56.540Z,4.77
2018-05-18T08:31:24.077Z,4.63
2018-05-18T08:33:51.618Z,4.97
2018-05-18T08:36:19.122Z,4.37
2018-05-18T08:38:46.703Z,5.23
2018-05-18T08:41:14.276Z,5.23
2018-05-18T08:43:41.779Z,5.00
2018-05-18T08:46:09.327Z,4.67
2018-05-18T08:48:36.825Z,5.17
2018-05-18T08:51:05.826Z,3.70
2018-05-18T08:53:34.171Z,4.47
2018-05-18T08:56:01.678Z,4.47
2018-05-18T08:58:29.187Z,4.30
2018-05-18T09:00:56.695Z,5.13
2018-05-18T09:03:24.962Z,4.73
2018-05-18T09:05:52.483Z,5.03
2018-05-18T09:08:20.014Z,4.87
2018-05-18T09:10:47.512Z,2.93
2018-05-18T09:13:15.035Z,4.90
2018-05-18T09:15:42.562Z,4.20
2018-05-18T09:18:11.685Z,4.40
2018-05-18T09:20:39.214Z,3.60
2018-05-18T09:23:07.930Z,4.20
2018-05-18T09:25:35.459Z,5.00
2018-05-18T09:28:03.779Z,4.53
2018-05-18T09:30:31.290Z,5.27
2018-05-18T09:32:58.992Z,5.00
2018-05-18T09:35:27.501Z,5.10
2018-05-18T09:37:55.019Z,5.50
2018-05-18T09:40:23.282Z,4.30
2018-05-18T09:42:51.941Z,4.77
2018-05-18T09:45:19.451Z,5.60
2018-05-18T09:47:47.018Z,5.23
2018-05-18T09:50:14.567Z,4.87
2018-05-18T09:52:42.101Z,5.07
2018-05-18T09:55:09.874Z,5.93
2018-05-18T09:57:37.182Z,5.63
2018-05-18T10:00:04.679Z,5.50
2018-05-18T10:02:32.189Z,5.70
2018-05-18T10:04:59.718Z,5.83
2018-05-18T10:07:27.225Z,5.10
2018-05-18T10:09:54.735Z,6.37
2018-05-18T10:12:23.144Z,4.57
2018-05-18T10:14:50.608Z,5.23
2018-05-18T10:17:18.879Z,6.13
2018-05-18T10:19:46.439Z,5.83
2018-05-18T10:22:13.963Z,5.83
2018-05-18T10:24:41.459Z,6.53
2018-05-18T10:27:09.039Z,5.77
2018-05-18T10:29:36.563Z,6.17
2018-05-18T10:32:04.938Z,5.73
2018-05-18T10:34:33.237Z,4.80
2018-05-18T10:37:00.750Z,6.00
2018-05-18T10:39:28.248Z,5.87
2018-05-18T10:41:56.549Z,4.63
2018-05-18T10:44:24.067Z,5.77
2018-05-18T10:46:52.460Z,6.03
2018-05-18T10:49:20.108Z,6.07
2018-05-18T10:51:47.618Z,6.00
2018-05-18T10:54:15.118Z,6.70
2018-05-18T10:56:42.658Z,5.37
2018-05-18T10:59:10.192Z,5.80
2018-05-18T11:01:37.735Z,6.37
2018-05-18T11:04:05.474Z,6.20
2018-05-18T11:06:32.979Z,7.07
2018-05-18T11:09:00.481Z,6.33
2018-05-18T11:11:28.051Z,6.10
2018-05-18T11:13:55.572Z,6.40
2018-05-18T11:16:23.091Z,6.83
2018-05-18T11:18:50.626Z,6.93
2018-05-18T11:21:18.157Z,6.37
2018-05-18T11:23:45.669Z,7.43
2018-05-18T11:26:13.244Z,6.37
2018-05-18T11:28:40.732Z,7.40
2018-05-18T11:31:08.259Z,7.30
2018-05-18T11:33:36.571Z,7.30
2018-05-18T11:36:04.095Z,5.80
2018-05-18T11:38:32.398Z,7.00
2018-05-18T11:40:59.927Z,8.27
2018-05-18T11:43:28.233Z,7.40
2018-05-18T11:45:55.758Z,7.60
2018-05-18T11:48:25.017Z,8.13
2018-05-18T11:50:52.530Z,8.43
2018-05-18T11:53:20.847Z,7.70
2018-05-18T11:55:48.422Z,6.40
2018-05-18T11:58:15.929Z,5.93
2018-05-18T12:00:43.467Z,7.50
2018-05-18T12:03:12.571Z,8.30
2018-05-18T12:05:40.076Z,9.10
2018-05-18T12:08:07.600Z,7.83
2018-05-18T12:10:35.930Z,8.00
2018-05-18T12:13:04.193Z,6.73
2018-05-18T12:15:31.717Z,5.73
2018-05-18T12:18:00.036Z,6.23
2018-05-18T12:20:27.612Z,6.27
2018-05-18T12:22:55.083Z,7.90
2018-05-18T12:25:22.662Z,8.60
2018-05-18T12:27:51.817Z,7.87
2018-05-18T12:30:19.327Z,7.13
2018-05-18T12:32:46.876Z,7.63
2018-05-18T12:35:14.423Z,7.70
2018-05-18T12:37:41.925Z,7.70
2018-05-18T12:40:10.206Z,8.63
2018-05-18T12:42:38.506Z,7.30
2018-05-18T12:45:06.034Z,6.73
2018-05-18T12:47:33.906Z,8.20
2018-05-18T12:50:01.458Z,6.77
2018-05-18T12:52:29.000Z,5.50
2018-05-18T12:54:57.253Z,8.07
2018-05-18T12:57:24.759Z,7.23
2018-05-18T12:59:53.098Z,8.33
2018-05-18T13:02:20.720Z,7.40
2018-05-18T13:04:48.245Z,6.60
2018-05-18T13:07:15.794Z,6.30
2018-05-18T13:09:43.310Z,7.50
2018-05-18T13:12:10.811Z,5.80
2018-05-18T13:14:38.391Z,8.20
2018-05-18T13:17:05.902Z,6.37
2018-05-18T13:19:34.222Z,7.17
2018-05-18T13:22:01.726Z,8.30
2018-05-18T13:24:29.249Z,7.50
2018-05-18T13:26:56.786Z,7.50
2018-05-18T13:29:24.292Z,7.73
2018-05-18T13:31:51.954Z,6.93
2018-05-18T13:34:20.262Z,6.17
2018-05-18T13:36:47.770Z,6.60
2018-05-18T13:39:15.342Z,7.83
2018-05-18T13:41:43.013Z,7.83
2018-05-18T13:44:11.319Z,6.90
2018-05-18T13:46:38.826Z,5.80
2018-05-18T13:49:06.350Z,5.93
2018-05-18T13:51:34.153Z,7.07
2018-05-18T13:54:01.714Z,7.67
2018-05-18T13:56:29.257Z,7.73
2018-05-18T13:58:56.774Z,8.10
2018-05-18T14:01:24.352Z,8.10
2018-05-18T14:03:51.864Z,7.90
2018-05-18T14:06:19.373Z,7.60
2018-05-18T14:08:46.909Z,6.77
2018-05-18T14:11:15.187Z,6.43
2018-05-18T14:13:44.490Z,6.30
2018-05-18T14:16:11.974Z,6.83
2018-05-18T14:18:39.510Z,6.57
2018-05-18T14:21:07.062Z,7.50
2018-05-18T14:23:34.610Z,7.80
2018-05-18T14:26:02.117Z,6.63
2018-05-18T14:28:29.631Z,7.33
2018-05-18T14:30:57.167Z,5.13
2018-05-18T14:33:24.670Z,7.83
2018-05-18T14:35:52.170Z,7.00
2018-05-18T14:38:19.699Z,7.30
2018-05-18T14:40:47.203Z,6.97
2018-05-18T14:43:14.784Z,8.07
2018-05-18T14:45:42.262Z,7.30
2018-05-18T14:48:09.904Z,5.90
2018-05-18T14:50:37.393Z,6.30
2018-05-18T14:53:04.914Z,6.60
2018-05-18T14:55:32.463Z,6.77
2018-05-18T14:57:59.999Z,7.10
2018-05-18T15:00:27.499Z,7.83
2018-05-18T15:02:55.053Z,7.57
2018-05-18T15:05:23.338Z,7.90
2018-05-18T15:07:51.074Z,6.20
2018-05-18T15:10:18.759Z,7.50
2018-05-18T15:12:46.362Z,5.33
2018-05-18T15:15:13.925Z,7.43
2018-05-18T15:17:41.841Z,7.87
2018-05-18T15:20:10.109Z,7.97
2018-05-18T15:22:37.809Z,6.83
2018-05-18T15:25:05.321Z,6.50
2018-05-18T15:27:32.828Z,7.33
2018-05-18T15:30:00.373Z,7.60
2018-05-18T15:32:28.862Z,6.23
2018-05-18T15:34:56.404Z,6.60
2018-05-18T15:37:23.947Z,7.80
2018-05-18T15:39:52.242Z,8.03
2018-05-18T15:42:19.808Z,7.13
2018-05-18T15:44:47.358Z,8.43
2018-05-18T15:47:14.988Z,7.73
2018-05-18T15:49:42.505Z,8.83
2018-05-18T15:52:10.027Z,7.37
2018-05-18T15:54:37.590Z,6.77
2018-05-18T15:57:05.122Z,7.10
2018-05-18T15:59:33.430Z,6.47
2018-05-18T16:02:00.930Z,8.27
2018-05-18T16:04:28.476Z,7.20
2018-05-18T16:06:56.015Z,8.77
2018-05-18T16:09:23.540Z,8.47
2018-05-18T16:11:51.096Z,8.37
2018-05-18T16:14:18.663Z,7.57
2018-05-18T16:16:46.925Z,8.30
2018-05-18T16:19:14.473Z,8.60
2018-05-18T16:21:42.019Z,7.90
2018-05-18T16:24:09.522Z,7.97
2018-05-18T16:26:37.073Z,7.30
2018-05-18T16:29:05.371Z,6.57
2018-05-18T16:31:32.886Z,7.47
2018-05-18T16:34:00.451Z,7.00
2018-05-18T16:36:27.961Z,8.10
2018-05-18T16:38:55.476Z,8.50
2018-05-18T16:41:23.019Z,8.10
2018-05-18T16:43:50.522Z,8.37
2018-05-18T16:46:18.866Z,7.37
2018-05-18T16:48:46.409Z,7.93
2018-05-18T16:51:13.922Z,9.60
2018-05-18T16:53:42.306Z,9.17
2018-05-18T16:56:10.109Z,8.90
2018-05-18T16:58:37.658Z,8.37
2018-05-18T17:01:05.388Z,8.00
2018-05-18T17:03:33.663Z,7.60
2018-05-18T17:06:01.184Z,8.43
2018-05-18T17:08:29.499Z,10.50
2018-05-18T17:10:57.015Z,8.33
2018-05-18T17:13:24.533Z,7.70
2018-05-18T17:15:52.074Z,8.10
2018-05-18T17:18:19.582Z,8.60
2018-05-18T17:20:47.150Z,8.40
2018-05-18T17:23:14.663Z,7.50
2018-05-18T17:25:43.013Z,7.90
2018-05-18T17:28:11.365Z,7.10
2018-05-18T17:30:39.042Z,7.37
2018-05-18T17:33:06.567Z,6.10
2018-05-18T17:35:34.392Z,7.47
2018-05-18T17:38:01.961Z,6.50
2018-05-18T17:40:29.494Z,7.17
2018-05-18T17:42:57.054Z,6.70
2018-05-18T17:45:24.558Z,6.80
2018-05-18T17:47:52.101Z,6.70
2018-05-18T17:50:19.638Z,6.53
2018-05-18T17:52:47.222Z,6.30
2018-05-18T17:55:15.739Z,6.50
2018-05-18T17:57:44.054Z,6.23
2018-05-18T18:00:11.579Z,6.73
2018-05-18T18:02:39.874Z,7.17
2018-05-18T18:05:07.382Z,7.40
2018-05-18T18:07:34.922Z,6.70
2018-05-18T18:10:02.531Z,5.47
2018-05-18T18:12:30.836Z,6.67
2018-05-18T18:14:58.344Z,6.90
2018-05-18T18:17:25.858Z,6.20
2018-05-18T18:19:54.282Z,6.97
2018-05-18T18:22:21.849Z,7.00
2018-05-18T18:24:49.343Z,6.63
2018-05-18T18:27:17.686Z,6.27
2018-05-18T18:29:45.200Z,6.73
2018-05-18T18:32:12.734Z,6.27
2018-05-18T18:34:41.027Z,6.50
2018-05-18T18:37:08.592Z,5.67
2018-05-18T18:39:36.104Z,6.53
2018-05-18T18:42:03.700Z,6.13
2018-05-18T18:44:31.212Z,6.17
2018-05-18T18:46:58.728Z,6.70
2018-05-18T18:49:26.257Z,6.10
2018-05-18T18:51:53.809Z,5.50
2018-05-18T18:54:21.372Z,6.20
2018-05-18T18:56:49.951Z,6.70
2018-05-18T18:59:17.511Z,6.40
2018-05-18T19:01:46.728Z,5.60
2018-05-18T19:04:15.203Z,6.10
2018-05-18T19:06:43.039Z,6.10
2018-05-18T19:09:10.605Z,6.03
2018-05-18T19:11:38.182Z,5.67
2018-05-18T19:14:05.717Z,5.13
2018-05-18T19:16:33.285Z,6.07
2018-05-18T19:19:00.902Z,4.87
2018-05-18T19:21:29.123Z,5.30
2018-05-18T19:23:56.638Z,5.57
2018-05-18T19:26:24.915Z,5.47
2018-05-18T19:28:52.483Z,5.37
2018-05-18T19:31:20.787Z,5.07
2018-05-18T19:33:48.618Z,6.07
2018-05-18T19:36:16.185Z,5.73
2018-05-18T19:38:43.710Z,5.53
2018-05-18T19:41:11.230Z,5.60
2018-05-18T19:43:39.549Z,5.67
2018-05-18T19:46:07.083Z,5.57
2018-05-18T19:51:08.544Z,5.13
2018-05-18T19:53:36.180Z,5.83
2018-05-18T19:56:03.730Z,5.73
2018-05-18T19:58:32.040Z,6.20
2018-05-18T20:00:59.601Z,4.80
2018-05-18T20:03:27.180Z,5.37
2018-05-18T20:05:55.078Z,5.10
2018-05-18T20:08:22.746Z,5.73
2018-05-18T20:10:50.264Z,5.00
2018-05-18T20:13:17.786Z,5.70
2018-05-18T20:15:46.070Z,5.37
2018-05-18T20:18:14.385Z,5.80
2018-05-18T20:20:41.950Z,5.13
2018-05-18T20:23:09.463Z,4.67
2018-05-18T20:25:37.002Z,5.33
2018-05-18T20:28:04.583Z,5.57
2018-05-18T20:30:32.883Z,5.33
2018-05-18T20:33:00.415Z,5.40
2018-05-18T20:35:28.713Z,5.33
2018-05-18T20:37:57.031Z,5.60
2018-05-18T20:40:24.543Z,5.17
2018-05-18T20:42:52.063Z,5.90
2018-05-18T20:45:19.602Z,6.03
2018-05-18T20:47:47.129Z,6.27
2018-05-18T20:50:20.562Z,5.93
2018-05-18T20:52:48.073Z,6.40
2018-05-18T20:55:16.495Z,5.87
2018-05-18T20:57:44.029Z,6.37
2018-05-18T21:00:12.295Z,5.87
2018-05-18T21:02:40.574Z,6.40
2018-05-18T21:05:08.902Z,6.40
2018-05-18T21:07:37.061Z,6.57
2018-05-18T21:10:04.562Z,6.10
2018-05-18T21:12:32.115Z,6.03
2018-05-18T21:14:59.641Z,6.50
2018-05-18T21:17:27.141Z,6.47
2018-05-18T21:19:54.700Z,7.23
2018-05-18T21:22:22.254Z,6.20
2018-05-18T21:24:49.754Z,6.87
2018-05-18T21:27:18.104Z,7.00
2018-05-18T21:29:45.614Z,6.30
2018-05-18T21:32:13.118Z,6.93
2018-05-18T21:34:41.403Z,6.53
2018-05-18T21:37:08.931Z,6.33
2018-05-18T21:39:36.555Z,7.37
2018-05-18T21:42:04.847Z,7.30
2018-05-18T21:44:32.388Z,6.53
2018-05-18T21:46:59.921Z,7.17
2018-05-18T21:49:27.434Z,6.90
2018-05-18T21:51:54.982Z,7.50
2018-05-18T21:54:22.527Z,7.40
2018-05-18T21:56:50.815Z,7.20
2018-05-18T21:59:18.337Z,7.80
2018-05-18T22:01:45.834Z,7.60
2018-05-18T22:04:14.412Z,7.50
2018-05-18T22:06:42.700Z,7.37
2018-05-18T22:09:10.259Z,7.63
2018-05-18T22:11:37.758Z,7.63
2018-05-18T22:14:05.386Z,8.50
2018-05-18T22:16:32.815Z,7.83
2018-05-18T22:19:00.317Z,7.50
2018-05-18T22:21:27.849Z,8.40
2018-05-18T22:23:55.368Z,8.27
2018-05-18T22:26:22.866Z,8.00
2018-05-18T22:28:51.186Z,8.10
2018-05-18T22:31:18.708Z,7.30
2018-05-18T22:33:46.254Z,7.67
2018-05-18T22:36:13.773Z,7.93
2018-05-18T22:38:41.336Z,8.00
2018-05-18T22:41:08.832Z,8.40
2018-05-18T22:43:36.366Z,8.40
2018-05-18T22:46:03.908Z,7.87
2018-05-18T22:48:31.430Z,8.27
2018-05-18T22:50:58.943Z,8.23
2018-05-18T22:53:26.483Z,8.37
2018-05-18T22:55:54.011Z,8.93
2018-05-18T22:58:21.573Z,8.70
2018-05-18T23:00:49.859Z,8.53
2018-05-18T23:03:17.369Z,9.23
2018-05-18T23:05:44.889Z,8.80
2018-05-18T23:08:12.434Z,8.20
2018-05-18T23:10:39.999Z,8.90
2018-05-18T23:13:08.325Z,8.27
2018-05-18T23:15:35.842Z,8.20
2018-05-18T23:18:03.371Z,8.13
2018-05-18T23:20:30.892Z,8.93
2018-05-18T23:22:58.390Z,9.57
2018-05-18T23:25:25.923Z,9.17
2018-05-18T23:27:53.442Z,8.43
2018-05-18T23:30:20.944Z,9.53
2018-05-18T23:32:48.472Z,8.87
2018-05-18T23:35:15.984Z,8.60
2018-05-18T23:37:43.499Z,8.87
2018-05-18T23:40:11.048Z,8.73
2018-05-18T23:42:38.578Z,9.17
2018-05-18T23:45:06.102Z,9.10
2018-05-18T23:47:33.633Z,8.87
2018-05-18T23:50:01.908Z,9.40
2018-05-18T23:52:29.410Z,8.73
2018-05-18T23:54:56.951Z,9.20
2018-05-18T23:57:24.499Z,9.20
2018-05-18T23:59:52.007Z,9.50
